Time;durP1;ratioP1;P1;durP2;ratioP2;P2;SDS_P1;SDS_P2;PMS_P1;PMS_P2;Temp;Humidity;BMP_temperature;BMP_pressure;BME280_temperature;BME280_humidity;BME280_pressure;Samples;Min_cycle;Max_cycle;Signal;HPM_P1;HPM_P2
2022/08/25 00:02:11;;;;;;;4.93;3.87;;;26.40;40.80;;;;;;5062417;28;20438;-87
2022/08/25 00:04:38;;;;;;;3.97;3.57;;;26.40;40.80;;;;;;5060053;28;20500;-88
2022/08/25 00:07:07;;;;;;;4.50;4.13;;;26.30;40.80;;;;;;5083895;28;20997;-87
2022/08/25 00:09:35;;;;;;;5.77;3.80;;;26.30;40.90;;;;;;5103012;28;20511;-87
2022/08/25 00:12:04;;;;;;;7.20;4.00;;;26.30;41.10;;;;;;5069222;28;20562;-87
2022/08/25 00:14:34;;;;;;;8.07;4.00;;;26.20;41.10;;;;;;5084598;28;20554;-87
2022/08/25 00:17:02;;;;;;;5.17;3.53;;;26.20;41.30;;;;;;5070623;28;20443;-89
2022/08/25 00:19:32;;;;;;;4.73;4.23;;;26.20;41.40;;;;;;5082617;28;20459;-86
2022/08/25 00:22:00;;;;;;;4.30;3.93;;;26.10;41.80;;;;;;5056882;28;20655;-86
2022/08/25 00:24:29;;;;;;;5.73;4.03;;;26.10;42.00;;;;;;5070276;28;20569;-86
2022/08/25 00:26:57;;;;;;;4.43;4.00;;;26.10;42.20;;;;;;5081920;28;20467;-88
2022/08/25 00:29:25;;;;;;;5.00;3.77;;;26.10;42.00;;;;;;5080736;28;21006;-87
2022/08/25 00:31:53;;;;;;;3.97;3.57;;;26.00;41.90;;;;;;5051084;28;20439;-87
2022/08/25 00:34:25;;;;;;;4.50;4.00;;;26.00;42.00;;;;;;5066821;28;20464;-85
2022/08/25 00:36:52;;;;;;;4.00;3.60;;;26.00;42.10;;;;;;5082140;28;20555;-87
2022/08/25 00:39:21;;;;;;;7.20;3.50;;;25.90;42.00;;;;;;5050851;28;20450;-87
2022/08/25 00:41:52;;;;;;;3.93;3.40;;;25.90;41.90;;;;;;5086690;28;20531;-86
2022/08/25 00:44:20;;;;;;;4.60;4.10;;;25.90;42.00;;;;;;5067890;28;20470;-87
2022/08/25 00:46:50;;;;;;;5.10;4.00;;;25.80;42.10;;;;;;5065770;28;21014;-87
2022/08/25 00:49:23;;;;;;;8.83;3.30;;;25.70;42.10;;;;;;5066930;28;20537;-86
2022/08/25 00:51:53;;;;;;;6.00;4.50;;;25.80;42.50;;;;;;5063738;28;20546;-87
2022/08/25 00:54:24;;;;;;;9.50;5.37;;;25.70;42.70;;;;;;5057030;28;20466;-87
2022/08/25 00:56:53;;;;;;;6.13;4.40;;;25.60;42.70;;;;;;5074305;28;20457;-88
2022/08/25 00:59:22;;;;;;;5.90;3.90;;;25.60;42.70;;;;;;5069052;28;20452;-89
2022/08/25 01:01:51;;;;;;;6.23;4.33;;;25.60;42.90;;;;;;5043969;28;20958;-87
2022/08/25 01:04:18;;;;;;;4.60;4.20;;;25.60;43.00;;;;;;5081249;28;20478;-87
2022/08/25 01:06:48;;;;;;;5.00;3.83;;;25.60;43.50;;;;;;5099142;28;20955;-87
2022/08/25 01:09:16;;;;;;;6.80;4.17;;;25.50;44.20;;;;;;5049335;28;20505;-87
2022/08/25 01:11:45;;;;;;;5.90;4.10;;;25.50;44.30;;;;;;5067655;28;20443;-87
2022/08/25 01:14:16;;;;;;;6.57;4.03;;;25.50;44.00;;;;;;5086932;28;20460;-86
2022/08/25 01:16:45;;;;;;;4.40;3.97;;;25.50;44.10;;;;;;5069252;28;20447;-87
2022/08/25 01:19:15;;;;;;;9.23;4.57;;;25.40;44.20;;;;;;5063808;28;21013;-86
2022/08/25 01:21:45;;;;;;;7.23;4.43;;;25.40;44.60;;;;;;5067881;28;20528;-87
2022/08/25 01:24:20;;;;;;;5.30;3.90;;;25.40;44.80;;;;;;5066447;28;20471;-87
2022/08/25 01:26:48;;;;;;;4.57;4.10;;;25.30;44.80;;;;;;5065657;28;20451;-87
2022/08/25 01:29:25;;;;;;;4.43;4.03;;;25.30;44.70;;;;;;5052328;28;20454;-85
2022/08/25 01:31:56;;;;;;;4.50;4.10;;;25.30;44.80;;;;;;5081934;28;20455;-87
2022/08/25 01:34:25;;;;;;;5.10;4.50;;;25.30;44.80;;;;;;5072491;28;20459;-86
2022/08/25 01:36:55;;;;;;;6.60;4.77;;;25.20;44.90;;;;;;5071511;28;20928;-87
2022/08/25 01:39:23;;;;;;;4.60;4.17;;;25.20;45.00;;;;;;5045453;28;20479;-87
2022/08/25 01:42:03;;;;;;;5.13;3.90;;;25.10;45.10;;;;;;5065092;28;20529;-88
2022/08/25 01:44:31;;;;;;;6.53;4.37;;;25.10;45.30;;;;;;5050452;28;20812;-87
2022/08/25 01:46:58;;;;;;;5.20;3.97;;;25.00;44.60;;;;;;5056533;28;20946;-86
2022/08/25 01:49:25;;;;;;;5.90;4.60;;;25.00;44.20;;;;;;5077365;28;20484;-87
2022/08/25 01:52:00;;;;;;;4.93;4.40;;;25.00;44.70;;;;;;5077788;28;20482;-87
2022/08/25 01:54:27;;;;;;;6.03;4.23;;;24.90;44.80;;;;;;5064298;28;20463;-87
2022/08/25 01:56:54;;;;;;;5.27;4.87;;;24.90;45.00;;;;;;5066980;28;20484;-86
2022/08/25 01:59:22;;;;;;;6.17;4.70;;;24.90;45.20;;;;;;5078752;28;20447;-88
2022/08/25 02:01:49;;;;;;;5.47;4.80;;;24.80;45.50;;;;;;5080630;28;20489;-87
2022/08/25 02:04:17;;;;;;;6.20;4.20;;;24.80;45.80;;;;;;5063686;28;20479;-87
2022/08/25 02:06:44;;;;;;;5.63;5.03;;;24.70;45.30;;;;;;5072909;28;20452;-86
2022/08/25 02:09:15;;;;;;;5.47;4.97;;;24.70;45.30;;;;;;5072465;28;20486;-86
2022/08/25 02:11:44;;;;;;;4.40;4.10;;;24.70;45.30;;;;;;5081994;28;20448;-86
2022/08/25 02:14:12;;;;;;;5.20;4.60;;;24.70;45.30;;;;;;5069650;28;20458;-85
2022/08/25 02:16:42;;;;;;;5.80;4.97;;;24.70;45.40;;;;;;5067420;28;20467;-86
2022/08/25 02:19:11;;;;;;;5.67;4.30;;;24.60;45.00;;;;;;5080583;28;20460;-86
2022/08/25 02:21:39;;;;;;;5.00;4.50;;;24.60;45.40;;;;;;5079049;28;20443;-87
2022/08/25 02:24:07;;;;;;;6.33;4.27;;;24.60;45.60;;;;;;5069108;28;20474;-87
2022/08/25 02:26:36;;;;;;;6.80;4.43;;;24.60;45.40;;;;;;5050310;28;20478;-86
2022/08/25 02:29:06;;;;;;;5.53;5.03;;;24.60;45.50;;;;;;5055899;28;20461;-86
2022/08/25 02:31:34;;;;;;;6.07;4.90;;;24.50;45.60;;;;;;5065167;28;20512;-87
2022/08/25 02:34:01;;;;;;;7.33;5.13;;;24.50;46.20;;;;;;5053576;28;20455;-86
2022/08/25 02:36:29;;;;;;;5.70;4.70;;;24.50;45.60;;;;;;5072441;28;20850;-86
2022/08/25 02:38:56;;;;;;;8.80;4.37;;;24.50;45.70;;;;;;5063281;28;20510;-88
2022/08/25 02:41:25;;;;;;;6.10;5.27;;;24.40;45.50;;;;;;5080618;28;20447;-87
2022/08/25 02:43:54;;;;;;;7.63;4.97;;;24.40;45.70;;;;;;5064647;28;21344;-88
2022/08/25 02:46:23;;;;;;;5.80;5.27;;;24.40;45.90;;;;;;5071364;28;20468;-86
2022/08/25 02:48:52;;;;;;;5.40;4.67;;;24.30;45.90;;;;;;5057423;28;20442;-89
2022/08/25 02:51:20;;;;;;;8.43;4.77;;;24.30;46.00;;;;;;5046750;28;20527;-88
2022/08/25 02:53:48;;;;;;;10.80;4.53;;;24.30;46.50;;;;;;5096478;28;20505;-86
2022/08/25 02:56:17;;;;;;;5.37;4.87;;;24.20;46.40;;;;;;5084386;28;20462;-87
2022/08/25 02:58:44;;;;;;;5.30;4.73;;;24.20;46.40;;;;;;5082137;28;20486;-87
2022/08/25 03:01:14;;;;;;;6.77;4.40;;;24.20;46.30;;;;;;5065434;28;20451;-86
2022/08/25 03:03:43;;;;;;;6.00;5.30;;;24.20;46.20;;;;;;5079970;28;20456;-88
2022/08/25 03:06:12;;;;;;;7.83;5.10;;;24.10;46.20;;;;;;5097929;28;20445;-86
2022/08/25 03:08:40;;;;;;;5.80;5.20;;;24.10;46.10;;;;;;5065534;28;20458;-86
2022/08/25 03:11:08;;;;;;;9.10;4.63;;;24.10;46.30;;;;;;5071123;28;20473;-88
2022/08/25 03:13:35;;;;;;;6.37;4.70;;;24.00;46.40;;;;;;5081154;28;20462;-87
2022/08/25 03:16:04;;;;;;;7.47;5.03;;;24.00;46.70;;;;;;5080024;28;20424;-86
2022/08/25 03:18:32;;;;;;;5.80;5.20;;;23.90;46.70;;;;;;5079339;28;21145;-87
2022/08/25 03:21:00;;;;;;;7.37;5.30;;;23.90;46.90;;;;;;5061063;28;20910;-88
2022/08/25 03:23:27;;;;;;;6.03;5.20;;;23.90;46.90;;;;;;5065901;28;20482;-87
2022/08/25 03:28:40;;;;;;;4.93;4.50;;;23.90;46.80;;;;;;5052160;28;20443;-86
2022/08/25 03:31:08;;;;;;;4.90;4.17;;;23.80;46.80;;;;;;5062542;28;20446;-88
2022/08/25 03:33:38;;;;;;;7.57;4.80;;;23.80;47.10;;;;;;5093011;28;21043;-86
2022/08/25 03:36:07;;;;;;;5.70;5.00;;;23.80;47.00;;;;;;5057772;28;20444;-86
2022/08/25 03:38:35;;;;;;;6.50;5.50;;;23.80;47.00;;;;;;5067707;28;20545;-87
2022/08/25 03:41:10;;;;;;;9.47;6.00;;;23.80;47.10;;;;;;5042833;28;20859;-88
2022/08/25 03:43:37;;;;;;;7.50;4.40;;;23.70;47.60;;;;;;5048918;28;20488;-86
2022/08/25 03:46:05;;;;;;;6.00;5.20;;;23.70;47.70;;;;;;5064396;28;20469;-87
2022/08/25 03:48:32;;;;;;;5.60;5.00;;;23.70;47.50;;;;;;5086369;28;20458;-87
2022/08/25 03:51:00;;;;;;;6.83;5.97;;;23.70;47.30;;;;;;5098995;28;20439;-86
2022/08/25 03:53:27;;;;;;;5.63;5.00;;;23.70;47.60;;;;;;5046241;28;20472;-86
2022/08/25 03:55:56;;;;;;;6.30;5.53;;;23.60;47.50;;;;;;5062183;28;20791;-86
2022/08/25 03:58:23;;;;;;;7.07;4.80;;;23.60;47.60;;;;;;5066412;28;20550;-87
2022/08/25 04:00:50;;;;;;;8.80;5.97;;;23.60;48.60;;;;;;5047285;28;21136;-88
2022/08/25 04:03:18;;;;;;;7.07;5.03;;;23.50;48.40;;;;;;5049356;28;20997;-87
2022/08/25 04:05:46;;;;;;;6.33;5.30;;;23.50;48.60;;;;;;5067722;28;20525;-86
2022/08/25 04:08:15;;;;;;;5.80;5.30;;;23.50;48.70;;;;;;5058315;28;20966;-85
2022/08/25 04:10:42;;;;;;;6.20;4.77;;;23.50;48.70;;;;;;5073361;28;20474;-86
2022/08/25 04:13:11;;;;;;;6.47;4.70;;;23.50;49.10;;;;;;5056229;28;20462;-87
2022/08/25 04:15:42;;;;;;;5.57;5.00;;;23.50;48.90;;;;;;5043441;28;20471;-86
2022/08/25 04:18:10;;;;;;;7.53;4.97;;;23.50;49.20;;;;;;5061902;28;20446;-87
2022/08/25 04:20:37;;;;;;;6.33;4.60;;;23.50;49.20;;;;;;5070972;28;20449;-87
2022/08/25 04:23:04;;;;;;;4.67;4.27;;;23.50;49.30;;;;;;5093953;28;20467;-86
2022/08/25 04:25:33;;;;;;;7.90;5.77;;;23.50;49.30;;;;;;5085002;28;20463;-86
2022/08/25 04:28:00;;;;;;;7.40;5.63;;;23.40;49.10;;;;;;5046149;28;20446;-87
2022/08/25 04:30:27;;;;;;;5.83;5.23;;;23.40;48.90;;;;;;5062098;28;20454;-87
2022/08/25 04:32:54;;;;;;;5.73;5.13;;;23.40;49.60;;;;;;5067001;28;20477;-87
2022/08/25 04:35:22;;;;;;;6.23;5.30;;;23.40;48.70;;;;;;5067521;28;20535;-86
2022/08/25 04:37:49;;;;;;;10.40;7.67;;;23.40;48.90;;;;;;5063383;28;20442;-86
2022/08/25 04:40:16;;;;;;;14.90;6.30;;;23.20;49.40;;;;;;5055522;28;20496;-87
2022/08/25 04:42:45;;;;;;;6.60;5.47;;;23.20;49.20;;;;;;5057581;28;20456;-86
2022/08/25 04:45:12;;;;;;;6.40;5.70;;;23.20;49.30;;;;;;5095309;28;20474;-86
2022/08/25 04:47:39;;;;;;;7.90;6.03;;;23.20;49.40;;;;;;5087045;28;20461;-87
2022/08/25 04:50:07;;;;;;;8.23;6.13;;;23.20;49.30;;;;;;5076144;28;20438;-86
2022/08/25 04:52:34;;;;;;;10.33;6.33;;;23.20;49.10;;;;;;5063174;28;20528;-86
2022/08/25 04:55:01;;;;;;;8.73;6.43;;;23.20;49.10;;;;;;5072305;28;20443;-86
2022/08/25 04:57:29;;;;;;;6.57;5.90;;;23.20;49.10;;;;;;5097505;28;20458;-86
2022/08/25 04:59:58;;;;;;;7.13;5.40;;;23.20;49.10;;;;;;5062555;28;20444;-86
2022/08/25 05:02:25;;;;;;;8.50;6.07;;;23.20;49.60;;;;;;5043464;28;20455;-84
2022/08/25 05:04:54;;;;;;;8.30;5.83;;;23.20;49.70;;;;;;5053612;28;21010;-87
2022/08/25 05:07:21;;;;;;;6.87;5.67;;;23.20;49.80;;;;;;5054509;28;20530;-87
2022/08/25 05:09:48;;;;;;;9.60;5.70;;;23.30;49.90;;;;;;5079313;28;20450;-86
2022/08/25 05:12:15;;;;;;;6.50;5.60;;;23.20;49.80;;;;;;5096033;28;20445;-87
2022/08/25 05:14:43;;;;;;;6.23;5.63;;;23.20;50.00;;;;;;5053349;28;20458;-86
2022/08/25 05:17:11;;;;;;;7.87;5.40;;;23.20;49.80;;;;;;5061124;28;20443;-87
2022/08/25 05:19:38;;;;;;;6.53;5.83;;;23.20;50.40;;;;;;5060437;28;20465;-87
2022/08/25 05:22:06;;;;;;;6.20;5.13;;;23.20;50.30;;;;;;5043698;28;20534;-86
2022/08/25 05:24:33;;;;;;;7.23;5.70;;;23.20;50.50;;;;;;5065327;28;20918;-87
2022/08/25 05:27:02;;;;;;;8.60;6.03;;;23.30;50.50;;;;;;5073757;28;20931;-89
2022/08/25 05:29:29;;;;;;;6.90;5.60;;;23.30;50.60;;;;;;5094120;28;20538;-87
2022/08/25 05:31:57;;;;;;;7.80;5.77;;;23.30;50.70;;;;;;5062114;28;20466;-90
2022/08/25 05:34:25;;;;;;;6.43;5.40;;;23.40;51.00;;;;;;5074087;28;20529;-88
2022/08/25 05:36:53;;;;;;;6.13;5.53;;;23.40;51.00;;;;;;5098051;28;20447;-87
2022/08/25 05:39:20;;;;;;;7.47;6.67;;;23.40;51.60;;;;;;5092527;28;20447;-88
2022/08/25 05:41:47;;;;;;;8.00;5.90;;;23.30;51.20;;;;;;5068519;28;20874;-89
2022/08/25 05:44:16;;;;;;;7.90;6.87;;;23.30;51.30;;;;;;5093506;28;21274;-87
2022/08/25 05:46:43;;;;;;;12.53;6.10;;;23.30;51.10;;;;;;5075079;28;20457;-87
2022/08/25 05:49:10;;;;;;;8.00;5.57;;;23.40;51.00;;;;;;5076212;28;20459;-88
2022/08/25 05:51:39;;;;;;;17.30;6.00;;;23.40;51.10;;;;;;5074924;28;20587;-89
2022/08/25 05:54:06;;;;;;;6.27;5.73;;;23.40;51.10;;;;;;5060444;28;20547;-85
2022/08/25 05:56:33;;;;;;;21.03;6.50;;;23.40;51.30;;;;;;5075467;28;20559;-87
2022/08/25 05:59:00;;;;;;;10.90;6.50;;;23.50;51.30;;;;;;5095182;28;20461;-91
2022/08/25 06:04:16;;;;;;;6.63;5.37;;;23.50;51.20;;;;;;5075840;28;20470;-87
2022/08/25 06:06:45;;;;;;;7.80;7.03;;;23.50;51.20;;;;;;5093295;28;20467;-87
2022/08/25 06:09:12;;;;;;;16.07;6.43;;;23.50;50.60;;;;;;5061295;28;20448;-89
2022/08/25 06:11:41;;;;;;;9.23;6.50;;;23.50;50.80;;;;;;5075774;28;20497;-88
2022/08/25 06:14:09;;;;;;;7.50;6.37;;;23.50;51.10;;;;;;5073746;28;20550;-87
2022/08/25 06:16:37;;;;;;;7.20;6.27;;;23.60;51.20;;;;;;5095440;28;20939;-88
2022/08/25 06:19:04;;;;;;;8.47;6.63;;;23.70;51.00;;;;;;5066711;28;21244;-89
2022/08/25 06:21:32;;;;;;;13.67;6.77;;;23.70;51.10;;;;;;5091604;28;21023;-87
2022/08/25 06:24:00;;;;;;;15.30;6.90;;;23.70;51.10;;;;;;5051722;28;20487;-86
2022/08/25 06:26:27;;;;;;;10.10;7.30;;;23.80;51.10;;;;;;5091179;28;20489;-87
2022/08/25 06:28:54;;;;;;;8.00;6.33;;;23.80;51.20;;;;;;5095094;28;20440;-89
2022/08/25 06:31:22;;;;;;;12.00;6.47;;;23.90;50.90;;;;;;5066025;28;20483;-87
2022/08/25 06:33:50;;;;;;;11.53;7.20;;;23.90;51.10;;;;;;5092599;28;20486;-88
2022/08/25 06:36:17;;;;;;;13.40;6.60;;;23.90;51.40;;;;;;5093834;28;20445;-87
2022/08/25 06:38:45;;;;;;;8.53;6.20;;;23.90;51.20;;;;;;5096143;28;20444;-87
2022/08/25 06:41:15;;;;;;;10.30;7.03;;;23.90;51.30;;;;;;5093234;28;20454;-87
2022/08/25 06:43:43;;;;;;;9.20;7.20;;;23.90;52.10;;;;;;5075584;28;20473;-87
2022/08/25 06:46:11;;;;;;;10.73;7.40;;;23.90;52.20;;;;;;5092553;28;20957;-88
2022/08/25 06:48:38;;;;;;;8.80;6.73;;;23.90;51.80;;;;;;5094442;28;20444;-87
2022/08/25 06:51:07;;;;;;;8.53;6.83;;;24.00;52.20;;;;;;5076994;28;20446;-88
2022/08/25 06:53:34;;;;;;;10.83;7.00;;;24.10;51.60;;;;;;5092302;28;20961;-87
2022/08/25 06:56:02;;;;;;;11.10;7.03;;;24.10;51.30;;;;;;5092962;28;20479;-89
2022/08/25 06:58:31;;;;;;;9.20;7.23;;;24.00;51.00;;;;;;5075284;28;20457;-87
2022/08/25 07:01:06;;;;;;;18.20;7.87;;;24.00;50.40;;;;;;5079489;28;20530;-89
2022/08/25 07:03:33;;;;;;;10.53;7.70;;;24.00;50.50;;;;;;5073281;28;20506;-88
2022/08/25 07:06:00;;;;;;;13.90;8.30;;;24.10;51.10;;;;;;5056570;28;20842;-87
2022/08/25 07:08:27;;;;;;;13.27;6.37;;;24.10;51.70;;;;;;5092267;28;21016;-87
2022/08/25 07:10:54;;;;;;;14.83;7.33;;;24.20;51.80;;;;;;5090839;28;20438;-88
2022/08/25 07:13:21;;;;;;;10.53;7.00;;;24.30;51.80;;;;;;5075595;28;20564;-88
2022/08/25 07:15:53;;;;;;;9.47;7.73;;;24.50;51.40;;;;;;5094597;28;20529;-87
2022/08/25 07:18:21;;;;;;;11.30;8.20;;;24.70;51.20;;;;;;5092654;28;20452;-87
2022/08/25 07:20:50;;;;;;;11.23;7.53;;;24.80;50.90;;;;;;5095151;28;20443;-88
2022/08/25 07:23:18;;;;;;;20.23;8.10;;;25.00;50.70;;;;;;5074788;28;20904;-88
2022/08/25 07:25:45;;;;;;;13.80;8.50;;;25.10;50.40;;;;;;5076126;28;20478;-88
2022/08/25 07:28:12;;;;;;;12.33;8.37;;;25.10;50.70;;;;;;5078650;28;20974;-86
2022/08/25 07:30:39;;;;;;;8.70;7.40;;;25.10;50.60;;;;;;5093184;28;20443;-88
2022/08/25 07:33:08;;;;;;;11.00;8.07;;;25.10;50.90;;;;;;5092877;28;20482;-88
2022/08/25 07:35:35;;;;;;;18.70;8.33;;;25.30;50.80;;;;;;5075019;28;20451;-89
2022/08/25 07:38:02;;;;;;;17.30;7.93;;;25.40;50.70;;;;;;5061848;28;20532;-88
2022/08/25 07:40:32;;;;;;;22.23;9.27;;;25.70;50.30;;;;;;5091368;28;20435;-88
2022/08/25 07:43:00;;;;;;;26.30;11.70;;;25.90;50.00;;;;;;5064731;28;20477;-89
2022/08/25 07:45:32;;;;;;;13.43;7.73;;;26.00;50.20;;;;;;5061536;28;20961;-91
2022/08/25 07:48:01;;;;;;;15.80;8.13;;;26.10;50.20;;;;;;5069057;28;20451;-89
2022/08/25 07:50:30;;;;;;;18.00;9.10;;;26.20;50.10;;;;;;5074813;28;20473;-88
2022/08/25 07:52:59;;;;;;;12.83;9.90;;;26.30;50.50;;;;;;5093285;28;20475;-89
2022/08/25 07:55:29;;;;;;;11.00;8.33;;;26.40;50.30;;;;;;5067864;28;20450;-90
2022/08/25 07:57:58;;;;;;;15.70;9.00;;;26.40;50.30;;;;;;5073875;28;20539;-89
2022/08/25 08:00:28;;;;;;;11.50;8.63;;;26.30;50.40;;;;;;5068933;28;20886;-88
2022/08/25 08:02:56;;;;;;;13.97;9.47;;;26.40;50.80;;;;;;5074734;28;20463;-88
2022/08/25 08:05:23;;;;;;;11.73;9.13;;;26.50;51.50;;;;;;5087893;28;20490;-89
2022/08/25 08:07:52;;;;;;;20.30;10.03;;;26.50;51.30;;;;;;5090436;28;20457;-88
2022/08/25 08:10:19;;;;;;;14.30;9.50;;;26.60;51.50;;;;;;5090160;28;20451;-91
2022/08/25 08:12:47;;;;;;;11.80;8.67;;;26.70;51.10;;;;;;5071329;28;20576;-90
2022/08/25 08:15:14;;;;;;;12.43;9.27;;;26.80;50.90;;;;;;5070314;28;20555;-88
2022/08/25 08:17:41;;;;;;;12.20;8.57;;;27.00;50.90;;;;;;5090065;28;20443;-89
2022/08/25 08:20:10;;;;;;;10.67;9.10;;;27.10;50.40;;;;;;5043300;28;20528;-90
2022/08/25 08:22:39;;;;;;;11.33;9.03;;;27.00;50.40;;;;;;5043431;28;20509;-91
2022/08/25 08:25:10;;;;;;;9.63;8.17;;;26.80;51.00;;;;;;5047817;28;21281;-88
2022/08/25 08:27:38;;;;;;;12.00;8.53;;;26.90;51.00;;;;;;5077245;28;20565;-90
2022/08/25 08:30:06;;;;;;;10.80;8.30;;;27.20;50.80;;;;;;5054677;28;20738;-90
2022/08/25 08:32:33;;;;;;;11.90;8.13;;;27.50;50.20;;;;;;5048466;28;20457;-91
2022/08/25 08:35:00;;;;;;;10.73;8.80;;;27.60;49.40;;;;;;5071544;28;20836;-93
2022/08/25 08:37:27;;;;;;;14.27;9.27;;;27.60;49.30;;;;;;5061414;28;20434;-91
2022/08/25 08:39:54;;;;;;;8.70;7.63;;;27.40;49.60;;;;;;5047465;28;20789;-89
2022/08/25 08:42:36;;;;;;;10.97;8.50;;;27.40;50.00;;;;;;5062662;28;20447;-92
2022/08/25 08:45:28;;;;;;;10.77;7.90;;;27.50;49.90;;;;;;5069552;28;20546;-90
2022/08/25 08:48:35;;;;;;;11.03;8.83;;;27.80;49.10;;;;;;5054755;28;20482;-91
2022/08/25 08:51:13;;;;;;;8.90;7.63;;;28.00;48.80;;;;;;4989778;28;20965;-90
2022/08/25 08:53:45;;;;;;;9.23;7.93;;;28.10;48.00;;;;;;5070853;28;20463;-89
2022/08/25 08:56:16;;;;;;;10.10;7.50;;;28.20;48.30;;;;;;5068409;28;20569;-92
2022/08/25 08:58:48;;;;;;;11.77;7.97;;;28.40;47.50;;;;;;5050265;28;20455;-90
2022/08/25 09:01:19;;;;;;;11.60;7.63;;;28.50;47.10;;;;;;5077134;28;20459;-88
2022/08/25 09:03:52;;;;;;;11.17;7.97;;;28.70;46.80;;;;;;5052788;28;20467;-92
2022/08/25 09:06:26;;;;;;;8.60;7.50;;;28.50;46.80;;;;;;5051897;28;20470;-90
2022/08/25 09:08:57;;;;;;;8.80;7.50;;;28.80;47.20;;;;;;5078742;28;20471;-91
2022/08/25 09:11:30;;;;;;;7.80;7.00;;;28.80;46.70;;;;;;5070996;28;20966;-93
2022/08/25 09:14:13;;;;;;;9.27;7.60;;;28.70;46.80;;;;;;5074076;28;20502;-90
2022/08/25 09:16:55;;;;;;;8.60;7.43;;;28.80;46.70;;;;;;5073779;28;20464;-89
2022/08/25 09:19:56;;;;;;;8.80;7.20;;;29.00;46.60;;;;;;5078888;28;20512;-92
2022/08/25 09:22:34;;;;;;;11.40;7.67;;;29.10;46.10;;;;;;5057914;28;21017;-91
2022/08/25 09:25:11;;;;;;;10.40;7.53;;;29.40;45.30;;;;;;5061827;28;21041;-93
2022/08/25 09:27:43;;;;;;;10.83;7.07;;;29.60;44.90;;;;;;5089866;28;20926;-91
2022/08/25 09:30:14;;;;;;;7.80;6.83;;;29.90;44.20;;;;;;5053612;28;20447;-91
2022/08/25 09:32:44;;;;;;;8.70;7.30;;;30.00;44.10;;;;;;5049115;28;20504;-94
2022/08/25 09:35:18;;;;;;;8.27;7.37;;;30.00;43.60;;;;;;5061913;28;20447;-92
2022/08/25 09:37:56;;;;;;;7.50;6.10;;;30.20;42.80;;;;;;5050665;28;20463;-91
2022/08/25 09:40:24;;;;;;;7.63;6.83;;;30.40;43.50;;;;;;5077997;28;20448;-90
2022/08/25 09:42:54;;;;;;;9.73;6.33;;;30.80;42.60;;;;;;5067572;28;20505;-90
2022/08/25 09:45:36;;;;;;;10.07;6.53;;;31.20;41.80;;;;;;5069956;28;20547;-90
2022/08/25 09:48:21;;;;;;;7.67;6.83;;;31.20;40.80;;;;;;5068576;28;20463;-89
2022/08/25 09:50:49;;;;;;;12.03;6.40;;;31.10;41.00;;;;;;5066848;28;20445;-92
2022/08/25 09:53:17;;;;;;;10.63;7.50;;;31.00;41.30;;;;;;5068109;28;20472;-91
2022/08/25 09:55:47;;;;;;;7.80;6.43;;;30.80;41.70;;;;;;5054625;28;20447;-92
2022/08/25 09:58:19;;;;;;;8.90;7.17;;;30.80;40.90;;;;;;5074748;28;20783;-93
2022/08/25 10:01:12;;;;;;;10.57;6.83;;;31.10;40.50;;;;;;5053041;28;20498;-92
2022/08/25 10:03:57;;;;;;;6.73;6.03;;;31.20;40.10;;;;;;5087700;28;20946;-92
2022/08/25 10:06:25;;;;;;;6.73;6.03;;;31.40;39.90;;;;;;5070329;28;20562;-91
2022/08/25 10:08:57;;;;;;;6.30;5.57;;;31.40;39.60;;;;;;5065095;28;20447;-90
2022/08/25 10:11:39;;;;;;;6.57;5.97;;;31.30;39.70;;;;;;5080685;28;20953;-91
2022/08/25 10:14:16;;;;;;;6.23;5.40;;;31.50;39.20;;;;;;5047365;28;20475;-90
2022/08/25 10:16:46;;;;;;;7.60;6.47;;;31.70;39.40;;;;;;5061612;28;20457;-93
2022/08/25 10:19:23;;;;;;;7.23;6.53;;;31.90;38.90;;;;;;5046669;28;20855;-91
2022/08/25 10:22:04;;;;;;;6.37;5.77;;;31.80;38.80;;;;;;5065221;28;21030;-93
2022/08/25 10:24:32;;;;;;;5.60;5.10;;;31.70;38.80;;;;;;5070027;28;20497;-91
2022/08/25 10:27:05;;;;;;;8.00;5.83;;;31.70;39.10;;;;;;5054072;28;21008;-93
2022/08/25 10:30:03;;;;;;;6.20;5.47;;;31.90;38.70;;;;;;5063741;28;20542;-91
2022/08/25 10:32:45;;;;;;;6.03;5.43;;;31.80;38.20;;;;;;5076005;28;21942;-90
2022/08/25 10:35:15;;;;;;;6.53;5.83;;;31.60;37.90;;;;;;5056196;28;20462;-91
2022/08/25 10:37:52;;;;;;;5.87;5.37;;;31.80;38.40;;;;;;5082184;28;20527;-91
2022/08/25 10:40:23;;;;;;;9.30;5.50;;;32.10;38.10;;;;;;5051156;28;20478;-89
2022/08/25 10:43:05;;;;;;;6.77;5.50;;;32.10;37.60;;;;;;5044224;28;20475;-90
2022/08/25 10:45:43;;;;;;;6.10;5.50;;;32.00;37.80;;;;;;5061289;28;20447;-90
2022/08/25 10:48:31;;;;;;;7.20;6.37;;;32.10;37.70;;;;;;5070788;28;20494;-90
2022/08/25 10:51:06;;;;;;;6.20;5.60;;;32.10;37.50;;;;;;5061159;28;20455;-91
2022/08/25 10:53:44;;;;;;;7.50;5.33;;;32.40;37.30;;;;;;5066984;28;20510;-92
2022/08/25 10:56:17;;;;;;;8.00;6.13;;;32.60;36.60;;;;;;5063093;28;21056;-91
2022/08/25 10:59:03;;;;;;;6.77;4.60;;;32.40;36.60;;;;;;5070795;28;20500;-90
2022/08/25 11:01:44;;;;;;;5.77;5.20;;;32.40;36.80;;;;;;5044617;28;20999;-91
2022/08/25 11:04:18;;;;;;;5.30;4.90;;;32.20;36.70;;;;;;5078679;28;20462;-88
2022/08/25 11:06:51;;;;;;;5.47;4.97;;;32.40;36.60;;;;;;5070483;28;20554;-90
2022/08/25 11:09:23;;;;;;;6.10;5.50;;;32.40;36.90;;;;;;5069362;28;20597;-90
2022/08/25 11:11:55;;;;;;;7.13;5.47;;;32.60;36.20;;;;;;5061147;28;20464;-89
2022/08/25 11:14:30;;;;;;;5.20;4.67;;;32.60;35.80;;;;;;5062494;28;20487;-90
2022/08/25 11:17:03;;;;;;;5.53;4.77;;;32.80;36.10;;;;;;5046662;28;20458;-89
2022/08/25 11:19:36;;;;;;;6.93;5.30;;;32.90;35.60;;;;;;5066497;28;20520;-90
2022/08/25 11:22:12;;;;;;;6.97;5.43;;;32.80;35.70;;;;;;5099421;28;20815;-91
2022/08/25 11:24:53;;;;;;;6.77;5.73;;;33.00;35.60;;;;;;5054450;28;20880;-92
2022/08/25 11:27:22;;;;;;;6.03;5.43;;;33.20;34.70;;;;;;5060023;28;20973;-92
2022/08/25 11:30:00;;;;;;;5.63;4.97;;;33.30;35.10;;;;;;5068658;28;20830;-91
2022/08/25 11:32:32;;;;;;;5.37;4.87;;;33.30;34.60;;;;;;5053834;28;20512;-92
2022/08/25 11:35:04;;;;;;;5.57;4.50;;;33.00;34.80;;;;;;5076887;28;20443;-90
2022/08/25 11:37:32;;;;;;;4.90;4.50;;;33.00;34.80;;;;;;5065125;28;20940;-90
2022/08/25 11:40:31;;;;;;;7.37;5.10;;;32.90;35.10;;;;;;5051673;28;20562;-90
2022/08/25 11:43:13;;;;;;;7.20;5.30;;;32.60;35.50;;;;;;5054551;28;20475;-91
2022/08/25 11:45:57;;;;;;;6.00;4.97;;;32.70;35.50;;;;;;5079799;28;20447;-91
2022/08/25 11:48:35;;;;;;;6.03;5.33;;;32.90;35.10;;;;;;5080441;28;21213;-92
2022/08/25 11:51:06;;;;;;;6.73;5.40;;;33.00;34.80;;;;;;5062150;28;20466;-93
2022/08/25 11:53:35;;;;;;;7.60;5.13;;;33.20;34.60;;;;;;5065998;28;20474;-89
2022/08/25 11:56:06;;;;;;;8.00;5.37;;;33.20;34.70;;;;;;5077478;28;20458;-92
2022/08/25 11:58:46;;;;;;;5.37;4.87;;;33.20;34.70;;;;;;5043603;28;20458;-89
2022/08/25 12:01:46;;;;;;;7.13;5.57;;;33.20;34.40;;;;;;5066948;28;20490;-90
2022/08/25 12:04:32;;;;;;;10.63;5.43;;;33.10;34.10;;;;;;5051851;28;20524;-90
2022/08/25 12:07:21;;;;;;;5.07;4.67;;;33.20;34.60;;;;;;5065063;28;20557;-90
2022/08/25 12:10:12;;;;;;;6.40;5.00;;;32.90;34.20;;;;;;5065390;28;20496;-92
2022/08/25 12:12:57;;;;;;;10.03;5.07;;;32.90;34.60;;;;;;5050195;28;20899;-91
2022/08/25 12:15:27;;;;;;;6.77;4.83;;;32.90;34.60;;;;;;5053374;28;20451;-90
2022/08/25 12:18:15;;;;;;;5.30;4.80;;;32.90;34.70;;;;;;5056431;28;20488;-91
2022/08/25 12:21:12;;;;;;;5.87;4.00;;;32.90;33.80;;;;;;5083445;28;20440;-91
2022/08/25 12:23:43;;;;;;;5.27;4.77;;;32.90;33.60;;;;;;5076948;28;20487;-92
2022/08/25 12:26:18;;;;;;;5.37;4.87;;;32.70;33.90;;;;;;5043089;28;20999;-94
2022/08/25 12:29:04;;;;;;;6.17;5.00;;;32.60;34.10;;;;;;5064655;28;20474;-91
2022/08/25 12:31:50;;;;;;;5.37;4.97;;;32.40;34.50;;;;;;5046196;28;20498;-90
2022/08/25 12:34:36;;;;;;;10.47;5.27;;;32.40;34.80;;;;;;5040144;28;20486;-90
2022/08/25 12:37:11;;;;;;;6.23;5.27;;;32.70;34.70;;;;;;5045379;28;20447;-91
2022/08/25 12:39:52;;;;;;;5.83;5.07;;;33.00;34.30;;;;;;5084935;28;20950;-90
2022/08/25 12:42:28;;;;;;;5.70;4.40;;;33.20;33.60;;;;;;5056818;28;20534;-90
2022/08/25 12:45:14;;;;;;;5.13;4.60;;;33.50;33.00;;;;;;5063786;28;20467;-92
2022/08/25 12:47:43;;;;;;;5.53;4.87;;;33.90;32.90;;;;;;5066732;28;20525;-91
2022/08/25 12:50:32;;;;;;;4.90;4.50;;;33.80;32.60;;;;;;5063997;28;20503;-91
2022/08/25 12:53:10;;;;;;;5.77;4.90;;;33.80;33.10;;;;;;5077491;28;20509;-91
2022/08/25 12:55:44;;;;;;;6.10;4.90;;;34.20;32.30;;;;;;5075113;28;20438;-91
2022/08/25 12:58:12;;;;;;;6.20;5.60;;;34.30;32.10;;;;;;5054703;28;20658;-89
2022/08/25 13:00:55;;;;;;;6.20;5.27;;;34.50;31.90;;;;;;5073019;28;20450;-91
2022/08/25 13:03:42;;;;;;;5.30;4.70;;;34.30;31.10;;;;;;5041491;28;20709;-92
2022/08/25 13:06:18;;;;;;;7.00;4.53;;;34.40;31.90;;;;;;5058114;28;20447;-90
2022/08/25 13:09:27;;;;;;;5.73;4.30;;;34.30;31.60;;;;;;5093900;28;20535;-88
2022/08/25 13:12:04;;;;;;;4.73;4.33;;;34.30;32.00;;;;;;5032174;28;20458;-92
2022/08/25 13:14:37;;;;;;;4.63;4.13;;;34.00;32.30;;;;;;5049145;28;20523;-91